Time;durP1;ratioP1;P1;durP2;ratioP2;P2;SDS_P1;SDS_P2;PMS_P1;PMS_P2;Temp;Humidity;BMP_temperature;BMP_pressure;BME280_temperature;BME280_humidity;BME280_pressure;Samples;Min_cycle;Max_cycle;Signal;HPM_P1;HPM_P2
2024/03/09 00:01:37;;;;;;;16.10;6.30;;;5.20;98.00;;;;;;4958192;28;20460;-67
2024/03/09 00:04:06;;;;;;;20.70;7.17;;;5.30;98.00;;;;;;4974686;28;20489;-67
2024/03/09 00:06:37;;;;;;;15.33;6.20;;;5.20;98.00;;;;;;4975262;28;20953;-67
2024/03/09 00:09:05;;;;;;;17.33;7.37;;;5.10;98.00;;;;;;4975372;28;20513;-67
2024/03/09 00:11:35;;;;;;;16.37;6.33;;;5.00;98.00;;;;;;4975250;28;20479;-67
2024/03/09 00:14:04;;;;;;;12.73;5.93;;;4.70;98.00;;;;;;4958277;28;20543;-67
2024/03/09 00:16:31;;;;;;;13.50;6.10;;;4.50;98.00;;;;;;4975272;28;20496;-66
2024/03/09 00:19:03;;;;;;;15.87;6.40;;;4.50;98.00;;;;;;4975110;28;20990;-67
2024/03/09 00:21:30;;;;;;;15.57;6.00;;;4.70;98.00;;;;;;4975046;28;20459;-67
2024/03/09 00:23:57;;;;;;;18.10;7.37;;;4.60;98.00;;;;;;4973978;28;20457;-67
2024/03/09 00:26:25;;;;;;;16.93;7.17;;;4.70;98.00;;;;;;4974944;28;20459;-67
2024/03/09 00:28:51;;;;;;;16.73;6.60;;;4.70;98.00;;;;;;4975013;28;20460;-67
2024/03/09 00:31:20;;;;;;;21.30;7.90;;;4.50;98.00;;;;;;4975073;28;20459;-66
2024/03/09 00:33:49;;;;;;;21.47;7.90;;;4.50;98.00;;;;;;4974461;28;20462;-67
2024/03/09 00:36:17;;;;;;;18.57;6.97;;;4.30;98.00;;;;;;4974937;28;20464;-67
2024/03/09 00:38:45;;;;;;;19.13;7.70;;;4.30;98.00;;;;;;4974729;28;20583;-67
2024/03/09 00:41:13;;;;;;;16.93;6.83;;;4.40;98.00;;;;;;4974969;28;20460;-67
2024/03/09 00:43:43;;;;;;;17.57;7.40;;;4.30;98.00;;;;;;4974911;28;20476;-67
2024/03/09 00:46:12;;;;;;;21.10;6.90;;;4.40;98.00;;;;;;4974559;28;20513;-66
2024/03/09 00:48:40;;;;;;;16.27;6.73;;;4.50;98.00;;;;;;4974579;28;20483;-67
2024/03/09 00:51:08;;;;;;;15.70;6.60;;;4.30;98.00;;;;;;4974721;28;20492;-66
2024/03/09 00:53:35;;;;;;;14.93;6.50;;;4.20;98.00;;;;;;4974681;28;20477;-67
2024/03/09 00:56:05;;;;;;;17.73;6.40;;;4.10;98.00;;;;;;4974587;28;20960;-67
2024/03/09 00:58:32;;;;;;;15.27;6.90;;;4.10;98.00;;;;;;4974342;28;20878;-66
2024/03/09 01:00:59;;;;;;;14.00;6.40;;;4.20;98.00;;;;;;4974593;28;20466;-66
2024/03/09 01:03:29;;;;;;;22.00;7.30;;;4.20;98.00;;;;;;4974636;28;20479;-67
2024/03/09 01:05:58;;;;;;;16.50;7.20;;;4.40;98.00;;;;;;4974057;28;20468;-66
2024/03/09 01:08:25;;;;;;;18.10;7.20;;;4.20;98.00;;;;;;4974189;28;20455;-67
2024/03/09 01:10:52;;;;;;;18.53;6.67;;;4.20;98.00;;;;;;4974016;28;20492;-67
2024/03/09 01:13:20;;;;;;;17.43;6.40;;;4.00;98.00;;;;;;4974053;28;20489;-66
2024/03/09 01:15:47;;;;;;;15.10;6.40;;;4.10;98.00;;;;;;4974013;28;20451;-66
2024/03/09 01:18:15;;;;;;;20.03;6.97;;;4.00;98.00;;;;;;4973936;28;20454;-67
2024/03/09 01:20:42;;;;;;;13.23;5.50;;;4.00;98.00;;;;;;4973705;28;20900;-67
2024/03/09 01:23:14;;;;;;;17.90;6.70;;;3.90;98.00;;;;;;4973798;28;20448;-67
2024/03/09 01:25:41;;;;;;;13.97;6.50;;;4.00;98.00;;;;;;4957053;28;20476;-66
2024/03/09 01:28:08;;;;;;;15.00;6.73;;;3.80;98.00;;;;;;4973821;28;20511;-67
2024/03/09 01:30:37;;;;;;;16.83;6.87;;;3.80;98.00;;;;;;4956800;28;20504;-66
2024/03/09 01:33:04;;;;;;;16.67;7.20;;;3.90;98.00;;;;;;4973655;28;20481;-67
2024/03/09 01:35:31;;;;;;;14.23;6.23;;;3.90;98.00;;;;;;4973424;28;21145;-67
2024/03/09 01:37:59;;;;;;;16.40;6.87;;;3.80;98.00;;;;;;4973520;28;20468;-67
2024/03/09 01:40:28;;;;;;;19.00;7.27;;;3.70;98.00;;;;;;4973566;28;20500;-67
2024/03/09 01:42:55;;;;;;;14.20;6.20;;;3.70;98.00;;;;;;4973585;28;20517;-67
2024/03/09 01:45:24;;;;;;;16.73;6.50;;;3.60;98.00;;;;;;4973633;28;20454;-67
2024/03/09 01:47:51;;;;;;;18.17;6.50;;;3.70;98.00;;;;;;4973356;28;20475;-67
2024/03/09 01:50:21;;;;;;;16.20;6.47;;;3.70;98.00;;;;;;4973429;28;20457;-67
2024/03/09 01:52:51;;;;;;;12.87;5.70;;;3.80;98.00;;;;;;4973374;28;20456;-67
2024/03/09 01:55:20;;;;;;;16.17;6.77;;;3.90;98.00;;;;;;4973351;28;21128;-67
2024/03/09 01:57:49;;;;;;;14.90;5.57;;;4.00;98.00;;;;;;4973174;28;20475;-66
2024/03/09 02:00:20;;;;;;;15.30;6.43;;;4.10;98.00;;;;;;4972568;28;20489;-67
2024/03/09 02:02:50;;;;;;;13.63;6.47;;;4.00;98.00;;;;;;4972641;28;20615;-66
2024/03/09 02:05:22;;;;;;;13.33;5.83;;;4.00;98.00;;;;;;4972911;28;20458;-66
2024/03/09 02:07:50;;;;;;;14.20;6.40;;;4.00;98.00;;;;;;4972971;28;20465;-66
2024/03/09 02:10:20;;;;;;;14.60;6.40;;;3.90;98.00;;;;;;4973467;28;20453;-67
2024/03/09 02:12:48;;;;;;;15.10;6.67;;;3.90;98.00;;;;;;4972985;28;20470;-67
2024/03/09 02:15:16;;;;;;;23.40;6.70;;;3.80;98.00;;;;;;4973245;28;20465;-67
2024/03/09 02:17:46;;;;;;;15.40;6.80;;;3.60;98.00;;;;;;4972876;28;20496;-67
2024/03/09 02:20:14;;;;;;;13.93;6.50;;;3.70;98.00;;;;;;4972941;28;20499;-67
2024/03/09 02:22:46;;;;;;;18.37;6.93;;;3.80;98.00;;;;;;4973166;28;20526;-67
2024/03/09 02:25:15;;;;;;;20.20;7.80;;;3.90;98.00;;;;;;4973037;28;20461;-67
2024/03/09 02:27:42;;;;;;;18.03;7.07;;;3.60;98.00;;;;;;4972976;28;20448;-67
2024/03/09 02:30:10;;;;;;;16.53;7.17;;;3.60;98.00;;;;;;4973202;28;20468;-67
2024/03/09 02:32:39;;;;;;;15.40;6.80;;;3.70;98.00;;;;;;4972886;28;20462;-66
2024/03/09 02:35:07;;;;;;;16.73;6.83;;;3.60;98.00;;;;;;4973122;28;20460;-67
2024/03/09 02:37:34;;;;;;;19.40;7.50;;;3.50;98.00;;;;;;4972936;28;20795;-67
2024/03/09 02:40:03;;;;;;;19.00;7.27;;;3.60;98.00;;;;;;4955972;28;20489;-67
2024/03/09 02:42:34;;;;;;;17.50;6.90;;;3.80;98.00;;;;;;4973149;28;20465;-67
2024/03/09 02:45:01;;;;;;;19.13;7.83;;;3.80;98.00;;;;;;4973187;28;20511;-66
2024/03/09 02:47:28;;;;;;;18.43;7.10;;;3.70;98.00;;;;;;4974641;28;20460;-67
2024/03/09 02:49:56;;;;;;;15.80;6.67;;;3.70;98.00;;;;;;4976809;28;20479;-66
2024/03/09 02:52:26;;;;;;;18.13;6.90;;;3.60;98.00;;;;;;4977034;28;20846;-67
2024/03/09 02:54:54;;;;;;;16.10;6.63;;;3.60;98.00;;;;;;4977169;28;20533;-67
2024/03/09 02:57:21;;;;;;;15.20;6.97;;;3.80;98.00;;;;;;4976869;28;20588;-67
2024/03/09 02:59:50;;;;;;;22.63;7.77;;;3.80;98.00;;;;;;4976826;28;20589;-67
2024/03/09 03:04:58;;;;;;;16.30;6.80;;;3.50;98.00;;;;;;4974746;28;20461;-66
2024/03/09 03:07:25;;;;;;;14.63;6.23;;;3.50;98.00;;;;;;4976462;28;20811;-66
2024/03/09 03:09:57;;;;;;;17.63;7.40;;;3.50;98.00;;;;;;4976283;28;20510;-67
2024/03/09 03:12:24;;;;;;;16.90;6.60;;;3.50;98.00;;;;;;4976385;28;20462;-67
2024/03/09 03:14:52;;;;;;;18.80;7.70;;;3.40;98.00;;;;;;4976098;28;20460;-66
2024/03/09 03:17:19;;;;;;;17.47;6.60;;;3.20;98.00;;;;;;4976002;28;20516;-67
2024/03/09 03:19:46;;;;;;;14.47;6.53;;;3.20;98.00;;;;;;4976222;28;20487;-67
2024/03/09 03:22:14;;;;;;;16.33;6.70;;;3.30;98.00;;;;;;4976268;28;20461;-66
2024/03/09 03:24:43;;;;;;;16.07;6.80;;;3.50;98.00;;;;;;4975994;28;20484;-67
2024/03/09 03:27:10;;;;;;;15.30;6.90;;;3.50;98.00;;;;;;4975711;28;20445;-67
2024/03/09 03:29:42;;;;;;;16.00;6.70;;;3.50;98.00;;;;;;4958867;28;20932;-66
2024/03/09 03:32:11;;;;;;;19.27;7.50;;;3.60;98.00;;;;;;4958218;28;20838;-67
2024/03/09 03:34:38;;;;;;;15.80;6.40;;;3.50;98.00;;;;;;4976034;28;20534;-67
2024/03/09 03:37:05;;;;;;;15.17;6.97;;;3.60;98.00;;;;;;4975853;28;20610;-66
2024/03/09 03:39:32;;;;;;;21.53;7.20;;;3.70;98.00;;;;;;4975834;28;20487;-66
2024/03/09 03:41:59;;;;;;;15.60;6.83;;;3.70;98.00;;;;;;4975743;28;20508;-67
2024/03/09 03:44:30;;;;;;;17.03;7.27;;;3.80;98.00;;;;;;4975876;28;20494;-67
2024/03/09 03:46:57;;;;;;;12.80;6.77;;;3.80;98.00;;;;;;4975732;28;20459;-66
2024/03/09 03:49:27;;;;;;;17.00;6.97;;;3.90;98.00;;;;;;4958506;28;20472;-67
2024/03/09 03:51:55;;;;;;;19.67;7.60;;;3.80;98.00;;;;;;4975682;28;20838;-67
2024/03/09 03:54:22;;;;;;;15.30;7.23;;;3.70;98.00;;;;;;4975810;28;20450;-67
2024/03/09 03:56:49;;;;;;;22.10;6.60;;;3.70;98.00;;;;;;4975685;28;20583;-66
2024/03/09 03:59:16;;;;;;;17.03;6.73;;;3.80;98.00;;;;;;4974399;28;20468;-66
2024/03/09 04:01:44;;;;;;;26.23;8.70;;;3.80;98.00;;;;;;4975491;28;20536;-66
2024/03/09 04:04:11;;;;;;;23.90;8.13;;;4.00;98.00;;;;;;4975325;28;20519;-66
2024/03/09 04:06:44;;;;;;;17.60;7.10;;;4.10;98.00;;;;;;4975268;28;20857;-67
2024/03/09 04:09:13;;;;;;;18.27;7.40;;;4.10;98.00;;;;;;4975319;28;20461;-66
2024/03/09 04:11:41;;;;;;;16.37;6.90;;;3.90;98.00;;;;;;4975434;28;20456;-67
2024/03/09 04:14:09;;;;;;;21.30;7.00;;;3.90;98.00;;;;;;4975185;28;20530;-66
2024/03/09 04:16:36;;;;;;;18.60;7.20;;;3.90;98.00;;;;;;4975221;28;20586;-66
2024/03/09 04:19:04;;;;;;;17.27;7.13;;;4.00;98.00;;;;;;4975138;28;20834;-67
2024/03/09 04:21:31;;;;;;;19.90;7.07;;;4.10;98.00;;;;;;4975099;28;20515;-66
2024/03/09 04:24:00;;;;;;;13.83;6.17;;;4.20;98.00;;;;;;4975202;28;20460;-67
2024/03/09 04:26:28;;;;;;;17.17;7.10;;;4.40;98.00;;;;;;4974989;28;20467;-67
2024/03/09 04:28:58;;;;;;;16.77;6.83;;;4.40;98.00;;;;;;4958053;28;20455;-67
2024/03/09 04:31:25;;;;;;;18.43;7.00;;;4.40;98.00;;;;;;4958229;28;20453;-67
2024/03/09 04:33:52;;;;;;;15.37;6.50;;;4.30;98.00;;;;;;4975140;28;20460;-67
2024/03/09 04:36:19;;;;;;;13.67;6.43;;;4.30;98.00;;;;;;4975179;28;20457;-67
2024/03/09 04:38:46;;;;;;;20.00;7.37;;;4.30;98.00;;;;;;4975086;28;20461;-67
2024/03/09 04:41:14;;;;;;;18.80;7.53;;;4.10;98.00;;;;;;4975092;28;20498;-67
2024/03/09 04:43:41;;;;;;;20.20;7.47;;;4.10;98.00;;;;;;4974825;28;20462;-66
2024/03/09 04:46:08;;;;;;;19.20;6.50;;;4.10;98.00;;;;;;4974798;28;20806;-66
2024/03/09 04:48:35;;;;;;;17.83;7.23;;;4.20;98.00;;;;;;4975022;28;20457;-66
2024/03/09 04:51:03;;;;;;;14.77;6.40;;;4.20;98.00;;;;;;4974594;28;20548;-66
2024/03/09 04:53:30;;;;;;;15.40;6.77;;;4.20;98.00;;;;;;4974151;28;20490;-66
2024/03/09 04:55:57;;;;;;;17.03;6.93;;;4.10;98.00;;;;;;4974374;28;20461;-66
2024/03/09 04:58:26;;;;;;;20.20;8.20;;;4.10;98.00;;;;;;4974722;28;20465;-66
2024/03/09 05:00:53;;;;;;;15.80;6.70;;;4.10;98.00;;;;;;4974434;28;20583;-66
2024/03/09 05:03:20;;;;;;;15.70;6.73;;;4.00;98.00;;;;;;4968824;28;20462;-66
2024/03/09 05:05:47;;;;;;;17.97;6.57;;;4.10;98.00;;;;;;4993574;28;20455;-66
2024/03/09 05:08:14;;;;;;;17.10;6.53;;;4.10;98.00;;;;;;4993750;28;20460;-66
2024/03/09 05:10:42;;;;;;;16.20;6.30;;;4.20;98.00;;;;;;4992917;28;20458;-66
2024/03/09 05:13:10;;;;;;;16.77;6.67;;;4.20;98.00;;;;;;4993224;28;20479;-66
2024/03/09 05:15:39;;;;;;;16.97;7.20;;;4.30;98.00;;;;;;4993511;28;20462;-66
2024/03/09 05:18:07;;;;;;;18.13;6.70;;;4.40;98.00;;;;;;4993377;28;21028;-66
2024/03/09 05:20:35;;;;;;;16.40;6.63;;;4.30;98.00;;;;;;4993535;28;20570;-66
2024/03/09 05:23:03;;;;;;;17.33;6.80;;;4.20;98.00;;;;;;4993212;28;20464;-66
2024/03/09 05:25:31;;;;;;;15.97;6.90;;;4.10;98.00;;;;;;4976070;28;20997;-66
2024/03/09 05:27:58;;;;;;;20.73;7.63;;;4.10;98.00;;;;;;4993215;28;20889;-66
2024/03/09 05:30:28;;;;;;;14.97;6.60;;;4.10;98.00;;;;;;4993076;28;20466;-66
2024/03/09 05:32:59;;;;;;;18.33;6.80;;;4.20;98.00;;;;;;4993217;28;20996;-66
2024/03/09 05:35:28;;;;;;;18.00;7.60;;;4.40;98.00;;;;;;4993374;28;20467;-66
2024/03/09 05:37:56;;;;;;;15.70;6.60;;;4.40;98.00;;;;;;4993148;28;20525;-66
2024/03/09 05:40:26;;;;;;;15.63;7.07;;;4.40;98.00;;;;;;4992984;28;20904;-66
2024/03/09 05:42:55;;;;;;;15.07;7.10;;;4.30;98.00;;;;;;4992900;28;20966;-66
2024/03/09 05:45:23;;;;;;;25.17;8.70;;;4.40;98.00;;;;;;4993058;28;20493;-66
2024/03/09 05:47:52;;;;;;;21.23;8.00;;;4.40;98.00;;;;;;4992993;28;20467;-66
2024/03/09 05:50:22;;;;;;;19.53;7.57;;;4.50;98.00;;;;;;4992734;28;20546;-66
2024/03/09 05:52:52;;;;;;;24.23;7.57;;;4.60;98.00;;;;;;4992738;28;20959;-66
2024/03/09 05:55:20;;;;;;;19.70;8.10;;;4.70;98.00;;;;;;4992429;28;20532;-66
2024/03/09 05:57:49;;;;;;;20.67;7.80;;;4.70;98.00;;;;;;4975632;28;20538;-66
2024/03/09 06:00:17;;;;;;;25.37;7.50;;;4.80;98.00;;;;;;4992548;28;20506;-66
2024/03/09 06:02:44;;;;;;;22.27;7.60;;;4.90;98.00;;;;;;4992604;28;20456;-66
2024/03/09 06:05:12;;;;;;;22.30;8.13;;;4.90;98.00;;;;;;4992655;28;20456;-65
2024/03/09 06:07:42;;;;;;;21.23;8.23;;;5.00;98.00;;;;;;4992869;28;20456;-66
2024/03/09 06:10:13;;;;;;;20.73;8.07;;;4.90;98.00;;;;;;4992873;28;20512;-66
2024/03/09 06:12:41;;;;;;;15.57;6.97;;;4.80;98.00;;;;;;4992781;28;20456;-66
2024/03/09 06:15:14;;;;;;;16.90;7.80;;;4.70;98.00;;;;;;4992712;28;20472;-66
2024/03/09 06:17:43;;;;;;;18.73;7.00;;;4.70;98.00;;;;;;4992573;28;20547;-66
2024/03/09 06:20:13;;;;;;;20.80;7.40;;;4.90;98.00;;;;;;4992857;28;20490;-66
2024/03/09 06:22:43;;;;;;;20.33;7.50;;;4.90;98.00;;;;;;4992598;28;20937;-66
2024/03/09 06:25:12;;;;;;;18.30;7.27;;;4.90;98.00;;;;;;4992461;28;20464;-66
2024/03/09 06:27:40;;;;;;;17.80;7.10;;;4.90;98.00;;;;;;4975637;28;20483;-66
2024/03/09 06:30:08;;;;;;;15.43;7.20;;;4.70;98.00;;;;;;4992993;28;20542;-66
2024/03/09 06:32:35;;;;;;;24.87;9.70;;;4.50;98.00;;;;;;4992707;28;20851;-66
2024/03/09 06:35:03;;;;;;;29.97;11.57;;;4.40;98.00;;;;;;4992454;28;20464;-66
2024/03/09 06:37:30;;;;;;;24.67;9.73;;;4.40;98.00;;;;;;4992488;28;20459;-66
2024/03/09 06:40:00;;;;;;;21.07;8.10;;;4.40;98.00;;;;;;4975310;28;20539;-66
2024/03/09 06:42:28;;;;;;;18.20;7.13;;;4.30;98.00;;;;;;4992041;28;20999;-66
2024/03/09 06:44:55;;;;;;;20.27;8.10;;;4.20;98.00;;;;;;4992273;28;20463;-66
2024/03/09 06:47:22;;;;;;;21.07;7.33;;;4.20;98.00;;;;;;4992664;28;20474;-67
2024/03/09 06:49:49;;;;;;;20.33;7.40;;;4.20;98.00;;;;;;4992428;28;20866;-66
2024/03/09 06:52:18;;;;;;;18.73;7.17;;;4.20;98.00;;;;;;4992389;28;20466;-67
2024/03/09 06:54:46;;;;;;;19.27;7.93;;;4.20;98.00;;;;;;4992102;28;20459;-66
2024/03/09 06:57:15;;;;;;;21.50;8.10;;;4.30;98.00;;;;;;4992166;28;21000;-66
2024/03/09 06:59:42;;;;;;;21.63;8.03;;;4.40;98.00;;;;;;4992517;28;20879;-63
2024/03/09 07:02:10;;;;;;;16.60;7.10;;;4.50;98.00;;;;;;4992359;28;20495;-62
2024/03/09 07:04:37;;;;;;;22.43;7.90;;;4.50;98.00;;;;;;4992164;28;20531;-62
2024/03/09 07:07:04;;;;;;;21.27;7.40;;;4.50;98.00;;;;;;4991607;28;20451;-62
2024/03/09 07:09:32;;;;;;;21.97;8.83;;;4.40;98.00;;;;;;4974991;28;20863;-62
2024/03/09 07:11:59;;;;;;;23.80;8.00;;;4.50;98.00;;;;;;4974982;28;20471;-62
2024/03/09 07:14:28;;;;;;;22.37;9.00;;;4.60;98.00;;;;;;4975013;28;20934;-62
2024/03/09 07:16:55;;;;;;;19.57;7.40;;;4.70;98.00;;;;;;4974337;28;20523;-62
2024/03/09 07:19:22;;;;;;;24.00;9.30;;;4.80;98.00;;;;;;4974925;28;20458;-62
2024/03/09 07:21:49;;;;;;;21.97;8.83;;;5.10;98.00;;;;;;4991715;28;20568;-62
2024/03/09 07:24:20;;;;;;;20.97;8.70;;;5.20;98.00;;;;;;4974930;28;20461;-62
2024/03/09 07:26:48;;;;;;;23.73;8.20;;;5.20;98.00;;;;;;4991909;28;20547;-62
2024/03/09 07:29:16;;;;;;;20.80;7.70;;;5.30;98.00;;;;;;4992071;28;20440;-63
2024/03/09 07:31:45;;;;;;;23.20;8.77;;;5.30;98.00;;;;;;4991382;28;21157;-62
2024/03/09 07:34:12;;;;;;;18.27;8.00;;;5.40;98.00;;;;;;4993924;28;20979;-62
2024/03/09 07:36:40;;;;;;;24.93;9.00;;;5.50;98.00;;;;;;4994863;28;20478;-62
2024/03/09 07:39:15;;;;;;;17.80;7.37;;;5.50;98.00;;;;;;4995258;28;20460;-62
2024/03/09 07:41:42;;;;;;;20.40;7.77;;;5.50;98.00;;;;;;4995391;28;20495;-62
2024/03/09 07:44:09;;;;;;;21.20;7.90;;;5.60;98.00;;;;;;4995494;28;20490;-62
2024/03/09 07:46:37;;;;;;;24.20;9.60;;;5.60;98.00;;;;;;4995533;28;20523;-62
2024/03/09 07:49:13;;;;;;;19.80;8.67;;;5.70;98.00;;;;;;4995219;28;20463;-62
2024/03/09 07:51:40;;;;;;;23.07;9.67;;;5.80;98.00;;;;;;4995171;28;20863;-62
2024/03/09 07:54:07;;;;;;;21.87;8.47;;;5.90;98.00;;;;;;4995320;28;20984;-62
2024/03/09 07:56:37;;;;;;;23.00;8.67;;;6.00;98.00;;;;;;4995268;28;20596;-62
2024/03/09 07:59:07;;;;;;;19.57;8.37;;;6.10;98.00;;;;;;4995294;28;20538;-62
2024/03/09 08:01:38;;;;;;;25.70;9.60;;;6.40;98.00;;;;;;4994929;28;20493;-62
2024/03/09 08:04:08;;;;;;;29.10;9.10;;;6.60;98.00;;;;;;4995193;28;20462;-62
2024/03/09 08:06:37;;;;;;;20.10;8.80;;;6.70;98.00;;;;;;4995022;28;20516;-62
2024/03/09 08:09:05;;;;;;;26.17;9.80;;;6.80;98.00;;;;;;4995282;28;20486;-62
2024/03/09 08:11:32;;;;;;;21.93;9.10;;;6.90;98.00;;;;;;4994950;28;20450;-62
2024/03/09 08:14:00;;;;;;;20.87;8.70;;;7.10;98.00;;;;;;4995004;28;20462;-63
2024/03/09 08:16:27;;;;;;;23.93;9.07;;;7.20;98.00;;;;;;4994890;28;20479;-62
2024/03/09 08:18:54;;;;;;;22.03;9.20;;;7.30;98.00;;;;;;4994660;28;20460;-62
2024/03/09 08:21:24;;;;;;;20.70;8.60;;;7.50;98.00;;;;;;4994685;28;20848;-62
2024/03/09 08:23:52;;;;;;;25.60;9.50;;;7.60;98.00;;;;;;4994781;28;20454;-62
2024/03/09 08:26:20;;;;;;;24.27;9.20;;;7.70;98.00;;;;;;4994816;28;20458;-62
2024/03/09 08:28:46;;;;;;;24.47;8.30;;;7.80;98.00;;;;;;4994703;28;20452;-62
2024/03/09 08:31:15;;;;;;;24.27;9.33;;;7.90;98.00;;;;;;4994822;28;20945;-62
2024/03/09 08:33:43;;;;;;;21.77;8.90;;;8.00;98.00;;;;;;4994272;28;20510;-62
2024/03/09 08:36:12;;;;;;;25.00;9.40;;;8.20;98.00;;;;;;4994651;28;20451;-62
2024/03/09 08:38:41;;;;;;;23.20;9.53;;;8.30;98.00;;;;;;4994159;28;20464;-62
2024/03/09 08:41:08;;;;;;;18.67;8.57;;;8.50;98.00;;;;;;4994279;28;20483;-62
2024/03/09 08:43:36;;;;;;;20.77;8.77;;;8.60;98.00;;;;;;4985494;28;20456;-62
2024/03/09 08:46:03;;;;;;;21.23;9.13;;;8.80;98.00;;;;;;4974032;28;20463;-62
2024/03/09 08:48:30;;;;;;;23.33;9.60;;;9.00;98.00;;;;;;4974629;28;20996;-63
2024/03/09 08:50:59;;;;;;;19.80;8.50;;;9.10;98.00;;;;;;4974571;28;20466;-62
2024/03/09 08:53:27;;;;;;;23.40;8.90;;;9.30;98.00;;;;;;4957863;28;20451;-62
2024/03/09 08:55:56;;;;;;;22.17;8.60;;;9.40;98.00;;;;;;4974823;28;20496;-62
2024/03/09 08:58:23;;;;;;;21.87;8.90;;;9.50;98.00;;;;;;4974682;28;20793;-62
2024/03/09 09:00:50;;;;;;;22.30;9.53;;;9.60;98.00;;;;;;4974483;28;20457;-62
2024/03/09 09:03:20;;;;;;;17.70;8.67;;;9.70;98.00;;;;;;4974412;28;21002;-62
2024/03/09 09:05:47;;;;;;;20.57;8.90;;;9.90;98.00;;;;;;4957847;28;20455;-63
2024/03/09 09:08:24;;;;;;;22.60;9.60;;;10.00;98.00;;;;;;4973249;28;20459;-62
2024/03/09 09:10:51;;;;;;;21.77;8.50;;;10.20;98.00;;;;;;5039115;23;20503;-74
2024/03/09 09:13:21;;;;;;;19.10;8.70;;;10.40;98.00;;;;;;4974870;28;20468;-74
2024/03/09 09:15:48;;;;;;;18.63;8.53;;;10.60;98.00;;;;;;4974529;28;20453;-78
2024/03/09 09:18:16;;;;;;;22.93;9.40;;;10.70;98.00;;;;;;4973908;28;20463;-74
2024/03/09 09:20:45;;;;;;;21.47;9.67;;;10.90;98.00;;;;;;4973332;28;20452;-72
2024/03/09 09:23:12;;;;;;;22.03;9.30;;;11.00;98.00;;;;;;4973294;28;20486;-71
2024/03/09 09:25:39;;;;;;;21.13;9.07;;;11.10;98.00;;;;;;4974436;28;20948;-71
2024/03/09 09:28:08;;;;;;;21.57;9.40;;;11.30;98.00;;;;;;4973840;28;20536;-74
2024/03/09 09:30:40;;;;;;;23.50;9.10;;;11.50;98.00;;;;;;4973075;28;20448;-72
2024/03/09 09:33:07;;;;;;;22.43;9.27;;;11.70;98.00;;;;;;4975686;28;20960;-74
2024/03/09 09:35:35;;;;;;;22.90;9.70;;;11.70;98.00;;;;;;4978538;28;20487;-74
2024/03/09 09:38:05;;;;;;;20.17;8.63;;;11.80;98.00;;;;;;4979476;28;20480;-74
2024/03/09 09:40:33;;;;;;;19.63;8.37;;;12.00;98.00;;;;;;4980157;28;20464;-74
2024/03/09 09:43:02;;;;;;;24.80;10.17;;;12.20;98.00;;;;;;4979436;28;20544;-74
2024/03/09 09:45:34;;;;;;;23.60;9.80;;;12.30;98.00;;;;;;4991022;28;20462;-74
2024/03/09 09:48:05;;;;;;;21.53;9.03;;;12.40;98.00;;;;;;4973006;28;20455;-74
2024/03/09 09:50:35;;;;;;;17.00;8.00;;;12.50;98.00;;;;;;4973123;28;20462;-75
2024/03/09 09:53:07;;;;;;;20.97;8.00;;;12.70;98.00;;;;;;4972904;28;20456;-75
2024/03/09 09:55:36;;;;;;;18.10;8.10;;;12.90;98.00;;;;;;4972792;28;20461;-75
2024/03/09 09:58:03;;;;;;;16.17;7.10;;;13.20;98.00;;;;;;4972716;28;20966;-75
2024/03/09 10:00:31;;;;;;;20.10;8.70;;;13.40;98.00;;;;;;4987422;28;20477;-76
2024/03/09 10:02:58;;;;;;;16.70;7.80;;;13.60;98.00;;;;;;4972366;28;20495;-75
2024/03/09 10:05:29;;;;;;;17.00;7.30;;;13.90;98.00;;;;;;4987664;28;20564;-75
2024/03/09 10:08:04;;;;;;;16.53;7.70;;;14.10;98.00;;;;;;4987416;28;20486;-76
2024/03/09 10:10:32;;;;;;;19.37;8.43;;;14.30;98.00;;;;;;4987326;28;20546;-76
2024/03/09 10:13:10;;;;;;;20.63;8.37;;;14.50;98.00;;;;;;4955202;28;20463;-76
2024/03/09 10:15:40;;;;;;;16.67;7.70;;;14.70;98.00;;;;;;4972658;28;20459;-76
2024/03/09 10:18:08;;;;;;;17.43;8.23;;;14.80;98.00;;;;;;4972765;28;20487;-76
2024/03/09 10:20:38;;;;;;;16.30;7.63;;;15.00;98.00;;;;;;4972860;28;20458;-76
2024/03/09 10:23:08;;;;;;;18.93;8.03;;;15.20;98.00;;;;;;4972403;28;20566;-76
2024/03/09 10:25:36;;;;;;;20.53;8.37;;;15.40;98.00;;;;;;4972474;28;20491;-76
2024/03/09 10:28:06;;;;;;;15.07;7.53;;;15.60;98.00;;;;;;4955005;28;20460;-76
2024/03/09 10:30:37;;;;;;;19.00;8.60;;;15.90;98.00;;;;;;4972522;28;20550;-76
2024/03/09 10:33:09;;;;;;;16.00;7.27;;;16.00;98.00;;;;;;4972344;28;20454;-76
2024/03/09 10:35:40;;;;;;;18.93;8.10;;;16.10;98.00;;;;;;4972386;28;20520;-76
2024/03/09 10:38:09;;;;;;;19.10;8.57;;;16.30;98.00;;;;;;4972273;28;20452;-76
2024/03/09 10:40:36;;;;;;;17.00;8.17;;;16.40;98.00;;;;;;4972644;28;20464;-76
2024/03/09 10:43:06;;;;;;;21.10;8.40;;;16.60;97.70;;;;;;4972210;28;20525;-77
2024/03/09 10:45:34;;;;;;;18.73;8.40;;;16.70;97.70;;;;;;4972373;28;20452;-77
2024/03/09 10:48:07;;;;;;;15.17;8.37;;;16.80;97.80;;;;;;4972027;28;20475;-76
2024/03/09 10:50:55;;;;;;;18.50;8.73;;;16.90;97.10;;;;;;4972084;28;20520;-77
2024/03/09 10:53:35;;;;;;;19.90;9.00;;;17.10;97.60;;;;;;4972158;28;20458;-77
2024/03/09 10:56:15;;;;;;;18.97;8.93;;;17.20;97.80;;;;;;4972205;28;20485;-77
2024/03/09 10:58:42;;;;;;;18.30;8.13;;;17.30;96.60;;;;;;4972081;28;20955;-76
2024/03/09 11:01:10;;;;;;;17.50;8.73;;;17.60;95.80;;;;;;4972274;28;20736;-77
2024/03/09 11:03:38;;;;;;;19.03;9.23;;;17.80;97.10;;;;;;4972142;28;20866;-77
2024/03/09 11:06:11;;;;;;;20.20;9.10;;;17.80;95.60;;;;;;4972086;28;20456;-77
2024/03/09 11:08:38;;;;;;;18.33;8.73;;;18.00;95.90;;;;;;4973980;28;20453;-77
2024/03/09 11:11:05;;;;;;;17.00;8.60;;;18.30;95.60;;;;;;4975753;28;20536;-77
2024/03/09 11:13:33;;;;;;;20.53;9.30;;;18.50;94.90;;;;;;4975637;28;20457;-77
2024/03/09 11:16:00;;;;;;;16.90;8.40;;;18.40;94.20;;;;;;4975757;28;20449;-77
2024/03/09 11:18:27;;;;;;;17.60;8.60;;;18.50;94.80;;;;;;4975548;28;20457;-77
2024/03/09 11:20:59;;;;;;;19.30;9.20;;;18.60;94.00;;;;;;4975770;28;20461;-77
2024/03/09 11:23:32;;;;;;;19.10;8.13;;;18.60;95.20;;;;;;4975893;28;20923;-78
2024/03/09 11:26:00;;;;;;;16.97;8.83;;;18.70;94.00;;;;;;4975626;28;20527;-77
2024/03/09 11:28:28;;;;;;;18.93;9.17;;;18.90;93.00;;;;;;4975604;28;20461;-77
2024/03/09 11:31:10;;;;;;;16.23;8.00;;;18.90;92.00;;;;;;4975489;28;20515;-78
2024/03/09 11:33:42;;;;;;;18.20;9.10;;;18.80;92.30;;;;;;4975448;28;20911;-78
2024/03/09 11:36:40;;;;;;;15.10;8.20;;;18.90;92.70;;;;;;4990245;28;20811;-77
2024/03/09 11:39:09;;;;;;;17.13;7.80;;;19.20;93.00;;;;;;4975665;28;20464;-77
2024/03/09 11:41:42;;;;;;;16.50;7.63;;;19.40;91.90;;;;;;4975608;28;20465;-77
2024/03/09 11:44:09;;;;;;;17.63;7.97;;;19.60;90.80;;;;;;4975417;28;20512;-78
2024/03/09 11:46:37;;;;;;;15.20;7.60;;;19.80;90.10;;;;;;4975572;28;20461;-78
2024/03/09 11:49:14;;;;;;;14.77;7.37;;;20.00;90.10;;;;;;4976324;28;20512;-77
2024/03/09 11:51:41;;;;;;;12.53;6.50;;;20.00;88.30;;;;;;4977199;28;20460;-78
2024/03/09 11:54:13;;;;;;;13.13;7.10;;;20.30;87.50;;;;;;4975403;28;20469;-79
2024/03/09 11:56:41;;;;;;;12.67;6.40;;;20.60;86.50;;;;;;4975290;28;20457;-79
2024/03/09 11:59:10;;;;;;;12.20;6.63;;;20.80;87.30;;;;;;4975229;28;20982;-78
2024/03/09 12:01:39;;;;;;;12.13;6.83;;;21.00;86.80;;;;;;4974945;28;20453;-79
2024/03/09 12:04:07;;;;;;;12.90;6.20;;;21.20;85.20;;;;;;4975311;28;20492;-76
2024/03/09 12:06:35;;;;;;;12.37;6.20;;;21.30;82.30;;;;;;4974889;28;20460;-76
2024/03/09 12:09:02;;;;;;;12.67;6.80;;;21.50;82.00;;;;;;4989653;28;20485;-77
2024/03/09 12:11:34;;;;;;;14.33;6.80;;;21.70;83.10;;;;;;4974761;28;20472;-77
2024/03/09 12:14:01;;;;;;;11.50;6.50;;;21.90;82.70;;;;;;4974783;28;20467;-77
2024/03/09 12:16:30;;;;;;;15.47;6.73;;;22.00;82.10;;;;;;4975072;28;20450;-78
2024/03/09 12:19:00;;;;;;;18.20;6.47;;;22.10;81.70;;;;;;4974652;28;20473;-78
2024/03/09 12:21:28;;;;;;;13.23;6.63;;;22.10;80.20;;;;;;4975458;28;21020;-78
2024/03/09 12:24:00;;;;;;;9.90;5.20;;;21.90;82.70;;;;;;4976674;28;20485;-78
2024/03/09 12:26:29;;;;;;;9.67;5.03;;;21.90;78.90;;;;;;4976351;28;20744;-79
2024/03/09 12:29:04;;;;;;;8.30;4.67;;;22.10;79.20;;;;;;4975848;28;20971;-79
2024/03/09 12:31:32;;;;;;;6.93;4.00;;;22.30;77.50;;;;;;4975495;28;20489;-78
2024/03/09 12:33:59;;;;;;;6.33;3.70;;;22.30;75.40;;;;;;4974721;28;20469;-78
2024/03/09 12:36:27;;;;;;;6.13;3.50;;;22.20;73.00;;;;;;4976524;28;20460;-78
2024/03/09 12:39:10;;;;;;;7.07;3.67;;;22.20;73.40;;;;;;4978182;28;20449;-78
2024/03/09 12:41:38;;;;;;;8.47;4.57;;;22.40;73.40;;;;;;4978972;28;20462;-78
2024/03/09 12:44:10;;;;;;;9.33;4.67;;;22.30;74.10;;;;;;4979618;28;20488;-77
2024/03/09 12:46:40;;;;;;;7.90;4.40;;;22.20;73.30;;;;;;4979576;28;20929;-79
2024/03/09 12:49:11;;;;;;;7.97;4.63;;;22.10;73.60;;;;;;4997377;23;21007;-85
2024/03/09 12:51:40;;;;;;;8.30;4.73;;;22.10;75.00;;;;;;4994505;28;20488;-85
2024/03/09 12:54:08;;;;;;;7.70;4.57;;;22.20;74.70;;;;;;4994551;28;20492;-85